Time;durP1;ratioP1;P1;durP2;ratioP2;P2;SDS_P1;SDS_P2;PMS_P1;PMS_P2;Temp;Humidity;BMP_temperature;BMP_pressure;BME280_temperature;BME280_humidity;BME280_pressure;Samples;Min_cycle;Max_cycle;Signal;HPM_P1;HPM_P2
2022/09/29 00:00:54;;;;;;;1.40;1.30;;;22.20;40.20;;;;;;4994221;28;20216;-58
2022/09/29 00:03:20;;;;;;;1.33;1.23;;;22.20;40.20;;;;;;4995450;28;20720;-58
2022/09/29 00:05:51;;;;;;;1.50;1.40;;;22.20;40.20;;;;;;4996705;28;20495;-59
2022/09/29 00:08:17;;;;;;;1.83;1.73;;;22.20;40.20;;;;;;4999443;28;20464;-59
2022/09/29 00:10:44;;;;;;;1.40;1.30;;;22.20;40.20;;;;;;4981637;28;20866;-59
2022/09/29 00:13:09;;;;;;;1.50;1.40;;;22.20;40.20;;;;;;4997427;28;20460;-58
2022/09/29 00:15:35;;;;;;;1.40;1.30;;;22.20;40.30;;;;;;4994957;28;20484;-60
2022/09/29 00:18:00;;;;;;;1.20;1.10;;;22.20;40.20;;;;;;4991681;28;23698;-59
2022/09/29 00:20:26;;;;;;;1.70;1.23;;;22.20;40.20;;;;;;4991101;28;20219;-58
2022/09/29 00:22:51;;;;;;;1.43;1.33;;;22.20;40.20;;;;;;4994330;28;20609;-59
2022/09/29 00:25:18;;;;;;;1.43;1.30;;;22.20;40.20;;;;;;4994801;28;20306;-61
2022/09/29 00:27:44;;;;;;;1.67;1.57;;;22.20;40.20;;;;;;4995965;28;20231;-58
2022/09/29 00:30:10;;;;;;;1.47;1.30;;;22.20;40.20;;;;;;4994803;28;20469;-62
2022/09/29 00:32:36;;;;;;;1.53;1.43;;;22.20;40.20;;;;;;4996677;28;20495;-59
2022/09/29 00:35:01;;;;;;;1.63;1.53;;;22.20;40.20;;;;;;5001890;28;20448;-59
2022/09/29 00:37:27;;;;;;;1.30;1.20;;;22.20;40.20;;;;;;5001478;28;20745;-60
2022/09/29 00:39:52;;;;;;;1.50;1.40;;;22.20;40.20;;;;;;5001284;28;20257;-58
2022/09/29 00:42:19;;;;;;;1.50;1.40;;;22.20;41.00;;;;;;4997580;28;20224;-58
2022/09/29 00:44:56;;;;;;;1.40;1.30;;;22.20;40.20;;;;;;4998620;28;20215;-61
2022/09/29 00:47:24;;;;;;;1.13;1.03;;;22.20;40.20;;;;;;5000964;28;20487;-58
2022/09/29 00:50:12;;;;;;;1.33;1.23;;;22.20;40.20;;;;;;4997161;28;20484;-60
2022/09/29 00:52:45;;;;;;;1.60;1.40;;;22.20;40.20;;;;;;4995152;28;20535;-60
2022/09/29 00:55:23;;;;;;;1.40;1.30;;;22.20;40.20;;;;;;5000607;28;20444;-62
2022/09/29 00:58:12;;;;;;;1.30;1.20;;;22.20;40.20;;;;;;4999118;28;20452;-58
2022/09/29 01:00:38;;;;;;;1.40;1.30;;;22.20;40.20;;;;;;4980924;28;20503;-60
2022/09/29 01:03:11;;;;;;;1.30;1.20;;;22.20;40.20;;;;;;4992963;28;20462;-60
2022/09/29 01:05:41;;;;;;;1.20;1.10;;;22.20;40.20;;;;;;4997118;28;20276;-59
2022/09/29 01:08:22;;;;;;;1.30;1.20;;;22.20;40.20;;;;;;4998957;28;20848;-61
2022/09/29 01:10:50;;;;;;;1.83;1.47;;;22.20;40.20;;;;;;4997645;28;20453;-58
2022/09/29 01:13:17;;;;;;;1.40;1.30;;;22.20;40.30;;;;;;4995745;28;20457;-57
2022/09/29 01:15:42;;;;;;;2.27;1.20;;;22.20;40.50;;;;;;4999955;28;20471;-59
2022/09/29 01:18:08;;;;;;;1.40;1.30;;;22.20;40.20;;;;;;4999533;28;20460;-59
2022/09/29 01:20:52;;;;;;;1.57;1.47;;;22.20;40.20;;;;;;4981319;28;20251;-58
2022/09/29 01:23:46;;;;;;;1.30;1.20;;;22.20;40.20;;;;;;4997167;28;20681;-59
2022/09/29 01:26:38;;;;;;;1.40;1.30;;;22.20;40.20;;;;;;4994612;28;20508;-60
2022/09/29 01:29:35;;;;;;;1.40;1.30;;;22.20;40.20;;;;;;4997069;28;20468;-58
2022/09/29 01:32:27;;;;;;;1.50;1.40;;;22.20;40.20;;;;;;4997702;28;20448;-58
2022/09/29 01:35:27;;;;;;;1.73;1.63;;;22.20;40.30;;;;;;4996373;28;20460;-62
2022/09/29 01:37:55;;;;;;;1.30;1.20;;;22.10;40.20;;;;;;4994551;28;20465;-58
2022/09/29 01:40:24;;;;;;;1.37;1.27;;;22.20;40.20;;;;;;5000315;28;20465;-58
2022/09/29 01:43:15;;;;;;;1.40;1.30;;;22.20;40.20;;;;;;4999636;28;20811;-57
2022/09/29 01:45:47;;;;;;;1.50;1.40;;;22.10;40.20;;;;;;4990391;28;20540;-60
2022/09/29 01:48:25;;;;;;;1.60;1.50;;;22.10;40.10;;;;;;4982054;28;20528;-59
2022/09/29 01:50:55;;;;;;;1.07;1.03;;;22.10;40.10;;;;;;4997146;28;20463;-59
2022/09/29 01:53:32;;;;;;;1.40;1.30;;;22.10;40.10;;;;;;4994996;28;20473;-58
2022/09/29 01:56:04;;;;;;;1.27;1.17;;;22.20;40.20;;;;;;4998758;28;20486;-58
2022/09/29 01:58:37;;;;;;;1.33;1.23;;;22.10;40.10;;;;;;4995199;28;20527;-59
2022/09/29 02:01:08;;;;;;;1.20;1.10;;;22.10;40.20;;;;;;4997663;28;20468;-58
2022/09/29 02:03:56;;;;;;;1.37;1.27;;;22.10;40.20;;;;;;5001360;28;20465;-58
2022/09/29 02:06:35;;;;;;;1.30;1.20;;;22.20;40.20;;;;;;4998252;28;20581;-57
2022/09/29 02:09:03;;;;;;;1.23;1.17;;;22.10;40.20;;;;;;4995979;28;20496;-59
2022/09/29 02:11:35;;;;;;;1.47;1.37;;;22.10;40.20;;;;;;4999215;28;20546;-61
2022/09/29 02:14:04;;;;;;;1.40;1.30;;;22.10;40.10;;;;;;5000925;28;20567;-58
2022/09/29 02:16:35;;;;;;;1.47;1.37;;;22.10;40.10;;;;;;5000344;28;20493;-61
2022/09/29 02:19:07;;;;;;;1.30;1.20;;;22.20;40.20;;;;;;4996107;28;20466;-58
2022/09/29 02:21:33;;;;;;;1.10;1.00;;;22.10;40.20;;;;;;4997941;28;20445;-59
2022/09/29 02:23:59;;;;;;;1.30;1.20;;;22.10;40.10;;;;;;4997767;28;20472;-59
2022/09/29 02:26:30;;;;;;;1.30;1.20;;;22.10;40.10;;;;;;4999640;28;20243;-58
2022/09/29 02:28:56;;;;;;;1.93;1.23;;;22.10;40.10;;;;;;4997230;28;20233;-61
2022/09/29 02:31:23;;;;;;;1.57;1.47;;;22.10;40.10;;;;;;4995546;28;20450;-58
2022/09/29 02:33:48;;;;;;;1.27;1.17;;;22.20;41.00;;;;;;4997073;28;21116;-61
2022/09/29 02:36:20;;;;;;;1.60;1.50;;;22.20;40.10;;;;;;4998171;28;20469;-58
2022/09/29 02:39:04;;;;;;;1.33;1.23;;;22.10;40.10;;;;;;4996428;28;20819;-60
2022/09/29 02:41:42;;;;;;;1.37;1.27;;;22.10;40.10;;;;;;4998116;28;20839;-61
2022/09/29 02:44:25;;;;;;;1.53;1.43;;;22.10;40.10;;;;;;4997265;28;20485;-63
2022/09/29 02:47:00;;;;;;;1.40;1.30;;;22.10;40.10;;;;;;4997205;28;20680;-60
2022/09/29 02:49:53;;;;;;;1.50;1.40;;;22.10;40.10;;;;;;4994665;28;20604;-58
2022/09/29 02:52:47;;;;;;;1.50;1.40;;;22.20;40.10;;;;;;4995346;28;20507;-60
2022/09/29 02:55:24;;;;;;;1.40;1.30;;;22.10;40.10;;;;;;5014236;28;20508;-58
2022/09/29 02:57:55;;;;;;;1.40;1.30;;;22.10;40.10;;;;;;4994216;28;20477;-58
2022/09/29 03:00:21;;;;;;;1.33;1.23;;;22.10;40.10;;;;;;4996802;28;20576;-59
2022/09/29 03:02:47;;;;;;;1.23;1.13;;;22.10;40.10;;;;;;4993747;28;20517;-61
2022/09/29 03:05:18;;;;;;;1.30;1.20;;;22.10;40.10;;;;;;4994701;28;20457;-61
2022/09/29 03:07:44;;;;;;;1.40;1.30;;;22.10;40.10;;;;;;4997332;28;20218;-58
2022/09/29 03:10:12;;;;;;;1.40;1.30;;;22.10;40.10;;;;;;4999230;28;20847;-62
2022/09/29 03:12:38;;;;;;;1.30;1.20;;;22.10;40.00;;;;;;4991931;28;21560;-59
2022/09/29 03:15:06;;;;;;;1.50;1.40;;;22.10;40.10;;;;;;4999428;28;20457;-59
2022/09/29 03:17:31;;;;;;;1.70;1.60;;;22.10;40.10;;;;;;4991506;28;25676;-59
2022/09/29 03:19:57;;;;;;;1.43;1.33;;;22.10;40.10;;;;;;4992039;28;20462;-61
2022/09/29 03:22:23;;;;;;;1.50;1.40;;;22.10;40.00;;;;;;4993379;28;20216;-60
2022/09/29 03:24:48;;;;;;;1.57;1.40;;;22.10;40.10;;;;;;4999362;28;20227;-59
2022/09/29 03:27:14;;;;;;;1.50;1.40;;;22.10;40.10;;;;;;4996381;28;20472;-58
2022/09/29 03:29:39;;;;;;;1.60;1.50;;;22.10;40.00;;;;;;4999028;28;20364;-57
2022/09/29 03:32:06;;;;;;;1.63;1.53;;;22.10;40.10;;;;;;4997949;28;20587;-58
2022/09/29 03:34:32;;;;;;;1.57;1.47;;;22.10;40.10;;;;;;4992909;28;20309;-58
2022/09/29 03:36:58;;;;;;;1.90;1.47;;;22.10;40.10;;;;;;4996856;28;20891;-58
2022/09/29 03:39:24;;;;;;;1.37;1.27;;;22.10;40.10;;;;;;4994839;28;20548;-59
2022/09/29 03:41:49;;;;;;;1.40;1.30;;;22.10;40.00;;;;;;4996961;28;20235;-58
2022/09/29 03:44:15;;;;;;;1.40;1.30;;;22.10;40.00;;;;;;4999497;28;20471;-59
2022/09/29 03:46:41;;;;;;;1.53;1.43;;;22.10;40.00;;;;;;4998325;28;20239;-58
2022/09/29 03:49:09;;;;;;;1.57;1.47;;;22.10;40.00;;;;;;4993973;28;20226;-58
2022/09/29 03:51:35;;;;;;;1.53;1.43;;;22.10;40.00;;;;;;4996880;28;20652;-63
2022/09/29 03:54:00;;;;;;;1.80;1.70;;;22.10;40.00;;;;;;4996256;28;20563;-60
2022/09/29 03:56:26;;;;;;;1.50;1.40;;;22.10;40.00;;;;;;4997883;28;20227;-57
2022/09/29 03:58:51;;;;;;;1.87;1.60;;;22.10;40.00;;;;;;4996972;28;20310;-58
2022/09/29 04:01:17;;;;;;;1.63;1.53;;;22.10;40.00;;;;;;4999093;28;20223;-60
2022/09/29 04:03:42;;;;;;;1.70;1.60;;;22.10;40.00;;;;;;4987925;28;20232;-60
2022/09/29 04:06:08;;;;;;;1.50;1.40;;;22.10;40.00;;;;;;4993940;28;20947;-63
2022/09/29 04:08:37;;;;;;;1.40;1.30;;;22.10;40.00;;;;;;5001101;28;20258;-58
2022/09/29 04:11:03;;;;;;;1.60;1.50;;;22.10;40.00;;;;;;5000960;28;20224;-61
2022/09/29 04:13:28;;;;;;;1.53;1.40;;;22.10;40.10;;;;;;5003375;28;21080;-58
2022/09/29 04:16:03;;;;;;;1.50;1.40;;;22.10;40.00;;;;;;4999352;28;20235;-57
2022/09/29 04:18:30;;;;;;;1.50;1.40;;;22.10;40.00;;;;;;5001473;28;20546;-59
2022/09/29 04:20:59;;;;;;;1.50;1.40;;;22.10;40.10;;;;;;4997688;28;20457;-59
2022/09/29 04:23:25;;;;;;;1.40;1.30;;;22.10;40.00;;;;;;5002867;28;20838;-59
2022/09/29 04:25:51;;;;;;;1.50;1.40;;;22.10;40.00;;;;;;5000610;28;20480;-61
2022/09/29 04:28:17;;;;;;;1.50;1.40;;;22.10;40.00;;;;;;5000339;28;20473;-63
2022/09/29 04:30:42;;;;;;;1.63;1.53;;;22.10;39.90;;;;;;4999540;28;20265;-58
2022/09/29 04:33:08;;;;;;;1.60;1.50;;;22.10;39.80;;;;;;4999677;28;20247;-63
2022/09/29 04:35:34;;;;;;;1.40;1.30;;;22.20;39.80;;;;;;4999657;28;20760;-62
2022/09/29 04:38:00;;;;;;;1.20;1.10;;;22.20;39.80;;;;;;5001729;28;20473;-58
2022/09/29 04:40:25;;;;;;;1.60;1.30;;;22.20;39.80;;;;;;4997440;28;20212;-59
2022/09/29 04:42:51;;;;;;;1.40;1.30;;;22.20;39.80;;;;;;4999966;28;20230;-58
2022/09/29 04:45:17;;;;;;;1.30;1.20;;;22.20;39.70;;;;;;4996621;28;20540;-60
2022/09/29 04:47:42;;;;;;;1.60;1.50;;;22.20;39.70;;;;;;4998364;28;20892;-61
2022/09/29 04:50:08;;;;;;;1.60;1.50;;;22.20;39.70;;;;;;4997327;28;21235;-62
2022/09/29 04:52:35;;;;;;;2.53;1.40;;;22.20;39.70;;;;;;5001533;28;20717;-59
2022/09/29 04:55:01;;;;;;;1.60;1.50;;;22.20;39.60;;;;;;4997081;28;20232;-63
2022/09/29 04:57:26;;;;;;;1.50;1.40;;;22.20;39.60;;;;;;5000589;28;20524;-58
2022/09/29 04:59:52;;;;;;;1.50;1.40;;;22.20;39.60;;;;;;4995968;28;20548;-61
2022/09/29 05:02:18;;;;;;;1.37;1.27;;;22.20;39.60;;;;;;4999562;28;20231;-59
2022/09/29 05:04:46;;;;;;;1.50;1.40;;;22.20;39.60;;;;;;4999100;28;20369;-58
2022/09/29 05:07:12;;;;;;;1.60;1.50;;;22.20;39.60;;;;;;4998969;28;20268;-61
2022/09/29 05:09:37;;;;;;;1.40;1.30;;;22.20;39.60;;;;;;4995322;28;20569;-58
2022/09/29 05:12:03;;;;;;;1.40;1.30;;;22.20;39.60;;;;;;4996593;28;20302;-59
2022/09/29 05:14:28;;;;;;;1.50;1.40;;;22.20;39.60;;;;;;4996772;28;20251;-59
2022/09/29 05:16:54;;;;;;;1.47;1.37;;;22.20;39.60;;;;;;4998412;28;20223;-58
2022/09/29 05:19:20;;;;;;;1.30;1.20;;;22.30;39.60;;;;;;4994482;28;20232;-60
2022/09/29 05:21:46;;;;;;;1.60;1.50;;;22.20;39.60;;;;;;4994794;28;20575;-62
2022/09/29 05:24:11;;;;;;;2.10;1.70;;;22.20;39.60;;;;;;4996712;28;20216;-57
2022/09/29 05:26:37;;;;;;;1.30;1.20;;;22.20;39.60;;;;;;4994861;28;20269;-60
2022/09/29 05:29:02;;;;;;;1.40;1.30;;;22.20;39.60;;;;;;4994137;28;20346;-64
2022/09/29 05:31:28;;;;;;;1.50;1.40;;;22.20;39.60;;;;;;4992137;28;20326;-60
2022/09/29 05:33:55;;;;;;;1.50;1.40;;;22.20;39.60;;;;;;4990746;28;20235;-65
2022/09/29 05:36:21;;;;;;;4.90;1.33;;;22.20;39.50;;;;;;4995552;28;20230;-58
2022/09/29 05:38:47;;;;;;;1.30;1.20;;;22.20;39.50;;;;;;4982532;28;20456;-59
2022/09/29 05:41:16;;;;;;;1.60;1.50;;;22.20;39.50;;;;;;4991718;28;20663;-63
2022/09/29 05:43:41;;;;;;;1.60;1.50;;;22.20;39.50;;;;;;4987714;28;20559;-60
2022/09/29 05:46:08;;;;;;;1.47;1.37;;;22.20;39.50;;;;;;4992484;28;20453;-63
2022/09/29 05:48:34;;;;;;;1.67;1.37;;;22.20;39.40;;;;;;4997440;28;20230;-59
2022/09/29 05:51:10;;;;;;;1.50;1.40;;;22.20;39.40;;;;;;4993526;28;20536;-61
2022/09/29 05:53:36;;;;;;;1.60;1.47;;;22.20;39.40;;;;;;4996788;28;20309;-61
2022/09/29 05:56:18;;;;;;;1.57;1.47;;;22.20;39.30;;;;;;4997737;28;20473;-60
2022/09/29 05:58:44;;;;;;;1.70;1.60;;;22.20;39.40;;;;;;4992813;28;20449;-59
2022/09/29 06:01:15;;;;;;;1.30;1.20;;;22.20;39.30;;;;;;4995996;28;20453;-59
2022/09/29 06:03:41;;;;;;;1.13;1.10;;;22.20;39.30;;;;;;4994914;28;20998;-58
2022/09/29 06:06:12;;;;;;;1.53;1.43;;;22.20;39.30;;;;;;4999559;28;20461;-62
2022/09/29 06:08:39;;;;;;;1.40;1.30;;;22.20;39.30;;;;;;4994785;28;20733;-63
2022/09/29 06:11:09;;;;;;;1.50;1.40;;;22.20;39.30;;;;;;4997269;28;20544;-58
2022/09/29 06:13:39;;;;;;;1.60;1.50;;;22.20;39.30;;;;;;4996726;28;20476;-58
2022/09/29 06:16:05;;;;;;;1.37;1.27;;;22.20;39.30;;;;;;4998037;28;20456;-61
2022/09/29 06:18:31;;;;;;;1.53;1.30;;;22.20;39.30;;;;;;4995067;28;20457;-59
2022/09/29 06:21:04;;;;;;;1.40;1.30;;;22.20;39.30;;;;;;4998905;28;20461;-59
2022/09/29 06:23:30;;;;;;;1.27;1.17;;;22.20;39.30;;;;;;4993726;28;20285;-61
2022/09/29 06:25:57;;;;;;;1.30;1.20;;;22.20;39.30;;;;;;4998616;28;20482;-58
2022/09/29 06:28:23;;;;;;;2.20;1.30;;;22.20;39.30;;;;;;4993697;28;20219;-60
2022/09/29 06:30:49;;;;;;;1.70;1.60;;;22.20;39.30;;;;;;4995494;28;20472;-58
2022/09/29 06:33:14;;;;;;;1.40;1.30;;;22.20;39.30;;;;;;4994830;28;20456;-60
2022/09/29 06:38:30;;;;;;;1.40;1.30;;;22.20;39.20;;;;;;4995904;28;20326;-59
2022/09/29 06:40:55;;;;;;;1.80;1.17;;;22.20;39.20;;;;;;4997346;28;20830;-59
2022/09/29 06:43:21;;;;;;;1.30;1.20;;;22.20;39.20;;;;;;4994174;28;20219;-58
2022/09/29 06:45:46;;;;;;;1.40;1.30;;;22.20;39.30;;;;;;4997162;28;20251;-58
2022/09/29 06:48:12;;;;;;;1.40;1.30;;;22.20;39.20;;;;;;5001008;28;20231;-61
2022/09/29 06:50:37;;;;;;;1.67;1.40;;;22.20;39.20;;;;;;4996982;28;20277;-62
2022/09/29 06:53:03;;;;;;;2.00;1.40;;;22.20;39.20;;;;;;4998196;28;20683;-60
2022/09/29 06:55:29;;;;;;;1.50;1.40;;;22.20;39.20;;;;;;5000314;28;20647;-59
2022/09/29 06:57:54;;;;;;;1.50;1.40;;;22.20;39.20;;;;;;4997637;28;20220;-60
2022/09/29 07:00:20;;;;;;;1.40;1.30;;;22.20;39.20;;;;;;4991768;28;20795;-64
2022/09/29 07:02:46;;;;;;;1.67;1.57;;;22.20;39.20;;;;;;4999399;28;20727;-60
2022/09/29 07:05:11;;;;;;;1.40;1.20;;;22.20;39.10;;;;;;4997959;28;20228;-61
2022/09/29 07:07:37;;;;;;;1.30;1.20;;;22.20;39.20;;;;;;4997696;28;20468;-60
2022/09/29 07:10:02;;;;;;;1.40;1.30;;;22.20;39.10;;;;;;4996171;28;20220;-59
2022/09/29 07:12:28;;;;;;;1.73;1.40;;;22.20;39.20;;;;;;4994779;28;20220;-63
2022/09/29 07:14:53;;;;;;;1.27;1.17;;;22.20;39.10;;;;;;4995114;28;20234;-58
2022/09/29 07:17:19;;;;;;;1.60;1.50;;;22.20;39.10;;;;;;4997034;28;20234;-58
2022/09/29 07:19:44;;;;;;;1.23;1.13;;;22.20;39.10;;;;;;4994948;28;20705;-60
2022/09/29 07:22:10;;;;;;;1.40;1.30;;;22.20;39.10;;;;;;4993415;28;20253;-59
2022/09/29 07:24:35;;;;;;;1.43;1.33;;;22.20;39.10;;;;;;4994866;28;20227;-60
2022/09/29 07:27:01;;;;;;;1.50;1.40;;;22.20;39.20;;;;;;4994355;28;20235;-59
2022/09/29 07:29:31;;;;;;;1.40;1.30;;;22.20;39.10;;;;;;4994330;28;20219;-59
2022/09/29 07:31:57;;;;;;;1.30;1.20;;;22.20;39.10;;;;;;4997482;28;20227;-62
2022/09/29 07:34:23;;;;;;;1.67;1.57;;;22.20;39.10;;;;;;4991968;28;20469;-58
2022/09/29 07:36:49;;;;;;;1.27;1.17;;;22.20;39.10;;;;;;4997703;28;20499;-60
2022/09/29 07:39:15;;;;;;;1.73;1.20;;;22.20;39.10;;;;;;4992720;28;20303;-64
2022/09/29 07:41:41;;;;;;;1.60;1.23;;;22.30;39.20;;;;;;4999000;28;20483;-62
2022/09/29 07:44:06;;;;;;;1.70;1.60;;;22.20;39.00;;;;;;4996670;28;20700;-59
2022/09/29 07:46:32;;;;;;;1.30;1.20;;;22.30;39.20;;;;;;4994253;28;20247;-58
2022/09/29 07:48:57;;;;;;;1.50;1.40;;;22.20;39.00;;;;;;4990181;28;20215;-58
2022/09/29 07:51:23;;;;;;;2.20;1.30;;;22.20;39.00;;;;;;4995952;28;20560;-59
2022/09/29 07:53:48;;;;;;;1.37;1.27;;;22.20;39.10;;;;;;4995111;28;20638;-60
2022/09/29 07:56:19;;;;;;;1.20;1.10;;;22.30;39.20;;;;;;4994319;28;20231;-61
2022/09/29 07:58:46;;;;;;;1.40;1.30;;;22.20;39.00;;;;;;4991863;28;20254;-59
2022/09/29 08:01:14;;;;;;;1.60;1.50;;;22.20;39.00;;;;;;4995737;28;20649;-63
2022/09/29 08:03:42;;;;;;;4.40;1.40;;;22.20;39.00;;;;;;4994445;28;20488;-61
2022/09/29 08:06:09;;;;;;;1.40;1.30;;;22.20;39.10;;;;;;4992526;28;20461;-62
2022/09/29 08:08:39;;;;;;;1.73;1.60;;;22.20;39.00;;;;;;4992626;28;20569;-59
2022/09/29 08:11:07;;;;;;;1.40;1.30;;;22.20;39.00;;;;;;4994400;28;20532;-58
2022/09/29 08:13:34;;;;;;;1.60;1.50;;;22.20;39.10;;;;;;4988404;28;20940;-62
2022/09/29 08:16:02;;;;;;;1.30;1.20;;;22.20;39.00;;;;;;4994695;28;20858;-60
2022/09/29 08:18:28;;;;;;;1.93;1.53;;;22.20;39.00;;;;;;4992560;28;20481;-60
2022/09/29 08:20:54;;;;;;;1.20;1.10;;;22.30;39.20;;;;;;4998480;28;20449;-62
2022/09/29 08:23:21;;;;;;;1.63;1.30;;;22.20;39.00;;;;;;4991287;28;20797;-59
2022/09/29 08:25:46;;;;;;;1.50;1.40;;;22.20;39.00;;;;;;4993264;28;20240;-59
2022/09/29 08:28:12;;;;;;;1.60;1.47;;;22.20;39.00;;;;;;4999143;28;20453;-61
2022/09/29 08:30:38;;;;;;;2.20;1.50;;;22.20;39.00;;;;;;4998128;28;20231;-58
2022/09/29 08:33:07;;;;;;;1.43;1.33;;;22.20;39.00;;;;;;4997367;28;20258;-59
2022/09/29 08:35:33;;;;;;;1.40;1.30;;;22.20;39.00;;;;;;4994975;28;20250;-59
2022/09/29 08:37:58;;;;;;;1.37;1.27;;;22.30;39.10;;;;;;4998181;28;21001;-58
2022/09/29 08:40:28;;;;;;;1.40;1.30;;;22.20;39.00;;;;;;4994272;28;20234;-63
2022/09/29 08:43:09;;;;;;;1.50;1.40;;;22.30;39.10;;;;;;4996049;28;20675;-59
2022/09/29 08:45:53;;;;;;;2.60;1.70;;;22.30;39.10;;;;;;4991842;28;20461;-66
2022/09/29 08:48:22;;;;;;;1.73;1.50;;;22.20;39.00;;;;;;4991553;28;21010;-59
2022/09/29 08:51:02;;;;;;;1.30;1.20;;;22.20;39.00;;;;;;4999200;28;20445;-60
2022/09/29 08:53:31;;;;;;;1.30;1.20;;;22.30;39.10;;;;;;4991334;28;21157;-59
2022/09/29 08:56:06;;;;;;;1.30;1.20;;;22.30;39.10;;;;;;5000989;28;20494;-58
2022/09/29 08:58:33;;;;;;;1.30;1.20;;;22.30;39.10;;;;;;4997424;28;20586;-58
2022/09/29 09:01:08;;;;;;;1.93;1.73;;;22.30;39.10;;;;;;4997936;28;20509;-58
2022/09/29 09:03:55;;;;;;;1.30;1.20;;;22.30;39.10;;;;;;4998473;28;20527;-59
2022/09/29 09:06:30;;;;;;;1.70;1.60;;;22.30;39.10;;;;;;4998050;28;20527;-58
2022/09/29 09:09:12;;;;;;;2.57;1.23;;;22.30;39.10;;;;;;4999216;28;20812;-60
2022/09/29 09:12:06;;;;;;;1.33;1.23;;;22.30;39.10;;;;;;4994788;28;20560;-60
2022/09/29 09:15:16;;;;;;;1.30;1.20;;;22.30;39.10;;;;;;4995985;28;20441;-58
2022/09/29 09:18:03;;;;;;;1.30;1.20;;;22.30;39.10;;;;;;4983050;28;20444;-62
2022/09/29 09:20:35;;;;;;;1.60;1.50;;;22.30;39.10;;;;;;5000672;28;20457;-62
2022/09/29 09:23:20;;;;;;;1.40;1.30;;;22.30;39.10;;;;;;4994307;28;20519;-59
2022/09/29 09:26:01;;;;;;;1.50;1.30;;;22.30;39.10;;;;;;4996550;28;20596;-60
2022/09/29 09:28:39;;;;;;;1.30;1.20;;;22.30;39.10;;;;;;4997189;28;20444;-59
2022/09/29 09:31:22;;;;;;;1.50;1.40;;;22.30;39.10;;;;;;4995082;28;21014;-59
2022/09/29 09:34:01;;;;;;;1.30;1.20;;;22.30;39.20;;;;;;4992457;28;20458;-59
2022/09/29 09:36:52;;;;;;;1.60;1.50;;;22.30;39.10;;;;;;4998302;28;20483;-58
2022/09/29 09:39:46;;;;;;;1.40;1.30;;;22.30;39.10;;;;;;4998046;28;20464;-62
2022/09/29 09:42:19;;;;;;;1.80;1.30;;;22.30;39.10;;;;;;4995285;28;20559;-64
2022/09/29 09:44:52;;;;;;;1.30;1.20;;;22.30;39.10;;;;;;4993442;28;20455;-61
2022/09/29 09:47:28;;;;;;;1.40;1.30;;;22.30;39.10;;;;;;4994207;28;20464;-60
2022/09/29 09:50:00;;;;;;;1.60;1.50;;;22.30;39.10;;;;;;4995720;28;20465;-59
2022/09/29 09:52:32;;;;;;;1.50;1.40;;;22.30;39.20;;;;;;4993608;28;20493;-61
2022/09/29 09:55:05;;;;;;;1.40;1.30;;;22.30;39.10;;;;;;4995879;28;21537;-60
2022/09/29 09:57:37;;;;;;;1.27;1.17;;;22.30;39.20;;;;;;4996655;28;21279;-60
2022/09/29 10:00:36;;;;;;;2.80;1.67;;;22.30;39.20;;;;;;4993120;28;20460;-58
2022/09/29 10:03:06;;;;;;;1.60;1.50;;;22.30;39.10;;;;;;4997330;28;23625;-58
2022/09/29 10:05:37;;;;;;;1.80;1.70;;;22.30;39.20;;;;;;4993170;28;20545;-59
2022/09/29 10:08:05;;;;;;;1.60;1.50;;;22.30;39.10;;;;;;5002102;28;20462;-58
2022/09/29 10:10:31;;;;;;;2.40;1.40;;;22.30;39.20;;;;;;4997369;28;20465;-61
2022/09/29 10:13:00;;;;;;;1.53;1.43;;;22.30;39.10;;;;;;4997761;28;20441;-59
2022/09/29 10:15:53;;;;;;;1.57;1.47;;;22.40;39.20;;;;;;4996770;28;20236;-62
2022/09/29 10:18:32;;;;;;;1.50;1.40;;;22.40;39.20;;;;;;4994162;28;20458;-59
2022/09/29 10:20:57;;;;;;;1.60;1.50;;;22.40;39.30;;;;;;4997919;28;20464;-59
2022/09/29 10:23:25;;;;;;;1.40;1.30;;;22.40;39.30;;;;;;4995147;28;20974;-59
2022/09/29 10:26:17;;;;;;;1.50;1.40;;;22.30;39.20;;;;;;4992736;28;20235;-60
2022/09/29 10:28:54;;;;;;;1.43;1.33;;;22.40;39.30;;;;;;4998317;28;20533;-59
2022/09/29 10:31:28;;;;;;;1.53;1.43;;;22.40;39.30;;;;;;4995768;28;22181;-60
2022/09/29 10:33:58;;;;;;;1.70;1.60;;;22.40;39.30;;;;;;4993215;28;20472;-61
2022/09/29 10:36:28;;;;;;;1.60;1.50;;;22.40;39.30;;;;;;4998658;28;20484;-59
2022/09/29 10:38:55;;;;;;;1.67;1.40;;;22.40;39.30;;;;;;4996120;28;20465;-64
2022/09/29 10:41:20;;;;;;;2.03;1.27;;;22.40;39.40;;;;;;4995982;28;20519;-60
2022/09/29 10:43:48;;;;;;;1.87;1.60;;;22.40;39.30;;;;;;4995062;28;20454;-59
2022/09/29 10:46:36;;;;;;;1.57;1.47;;;22.40;39.30;;;;;;4994963;28;20231;-59
2022/09/29 10:49:17;;;;;;;1.60;1.50;;;22.40;39.30;;;;;;4999630;28;20530;-58
2022/09/29 10:52:00;;;;;;;2.27;1.60;;;22.40;39.30;;;;;;4996691;28;21165;-59
2022/09/29 10:54:28;;;;;;;1.40;1.30;;;22.40;39.30;;;;;;4991918;28;20487;-58
2022/09/29 10:56:55;;;;;;;1.43;1.33;;;22.40;39.30;;;;;;4996293;28;20466;-58
2022/09/29 10:59:23;;;;;;;1.50;1.40;;;22.40;39.30;;;;;;4997937;28;20504;-58
2022/09/29 11:01:52;;;;;;;3.13;1.37;;;22.40;39.30;;;;;;4999852;28;20590;-59
2022/09/29 11:04:31;;;;;;;1.60;1.50;;;22.40;39.40;;;;;;4994217;28;20480;-62
2022/09/29 11:07:05;;;;;;;1.40;1.30;;;22.40;39.30;;;;;;4991471;28;20488;-59
2022/09/29 11:09:42;;;;;;;1.73;1.63;;;22.30;39.30;;;;;;4998038;28;21211;-62
2022/09/29 11:12:28;;;;;;;1.70;1.60;;;22.40;39.40;;;;;;4997866;28;20457;-58
2022/09/29 11:14:54;;;;;;;1.60;1.50;;;22.30;39.20;;;;;;4994775;28;20457;-62
2022/09/29 11:17:22;;;;;;;1.50;1.40;;;22.40;40.20;;;;;;4997822;28;20453;-58
2022/09/29 11:19:53;;;;;;;1.40;1.30;;;22.30;39.30;;;;;;4996237;28;20227;-58
2022/09/29 11:22:55;;;;;;;1.60;1.50;;;22.40;39.40;;;;;;4996711;28;20488;-60
2022/09/29 11:25:31;;;;;;;1.90;1.80;;;22.30;39.30;;;;;;4995058;28;20473;-59
2022/09/29 11:28:08;;;;;;;1.67;1.57;;;22.30;39.30;;;;;;4993430;28;20477;-58
2022/09/29 11:30:52;;;;;;;1.53;1.43;;;22.30;39.30;;;;;;4994850;28;20483;-58
2022/09/29 11:34:15;;;;;;;1.43;1.33;;;22.30;39.30;;;;;;4992391;28;20528;-62
2022/09/29 11:36:55;;;;;;;1.80;1.70;;;22.30;39.30;;;;;;4994271;28;20456;-59
2022/09/29 11:39:28;;;;;;;1.40;1.30;;;22.30;39.40;;;;;;4995642;28;20472;-58
2022/09/29 11:42:13;;;;;;;1.50;1.40;;;22.30;39.40;;;;;;5001814;28;20536;-59
2022/09/29 11:44:57;;;;;;;1.63;1.53;;;22.30;39.40;;;;;;4997275;28;20465;-58
2022/09/29 11:47:51;;;;;;;1.43;1.33;;;22.30;39.40;;;;;;4991596;28;20465;-59
2022/09/29 11:50:30;;;;;;;1.30;1.20;;;22.30;39.40;;;;;;4995482;28;20533;-58
2022/09/29 11:53:08;;;;;;;1.67;1.50;;;22.30;39.50;;;;;;4995490;28;20974;-58
2022/09/29 11:55:41;;;;;;;1.70;1.60;;;22.30;39.50;;;;;;4995999;28;20508;-63
2022/09/29 11:58:34;;;;;;;1.40;1.30;;;22.30;39.50;;;;;;4995666;28;20540;-58
2022/09/29 12:01:28;;;;;;;1.43;1.33;;;22.30;39.50;;;;;;4997313;28;20456;-59
2022/09/29 12:04:21;;;;;;;1.30;1.20;;;22.30;39.50;;;;;;4995443;28;20483;-62
2022/09/29 12:07:12;;;;;;;1.50;1.40;;;22.30;39.50;;;;;;4995777;28;20492;-59
2022/09/29 12:09:56;;;;;;;1.30;1.20;;;22.30;39.80;;;;;;4991379;28;20548;-60
2022/09/29 12:12:21;;;;;;;1.40;1.30;;;22.30;39.60;;;;;;4994366;28;20480;-59
2022/09/29 12:15:17;;;;;;;1.43;1.33;;;22.20;39.50;;;;;;4995638;28;20538;-58
2022/09/29 12:17:51;;;;;;;1.70;1.60;;;22.20;39.40;;;;;;4995156;28;20705;-58
2022/09/29 12:20:35;;;;;;;3.47;1.70;;;22.30;39.60;;;;;;5000270;28;20472;-58
2022/09/29 12:23:04;;;;;;;1.40;1.30;;;22.30;39.60;;;;;;4996227;28;20458;-60
2022/09/29 12:25:36;;;;;;;1.40;1.30;;;22.20;39.50;;;;;;4992716;28;20544;-58
2022/09/29 12:28:11;;;;;;;1.40;1.30;;;22.20;39.50;;;;;;4998086;28;21224;-58
2022/09/29 12:30:47;;;;;;;1.43;1.33;;;22.20;39.50;;;;;;4998202;28;20624;-58
2022/09/29 12:33:16;;;;;;;1.37;1.27;;;22.20;39.50;;;;;;5003969;28;20439;-61
2022/09/29 12:35:53;;;;;;;2.30;1.60;;;22.30;40.30;;;;;;4999196;28;20453;-61
2022/09/29 12:38:31;;;;;;;1.40;1.30;;;22.30;39.60;;;;;;4997089;28;20943;-59
2022/09/29 12:41:06;;;;;;;1.50;1.40;;;22.20;39.50;;;;;;4997268;28;20464;-58
2022/09/29 12:43:44;;;;;;;1.40;1.30;;;22.20;39.50;;;;;;4999033;28;20468;-58
2022/09/29 12:46:27;;;;;;;1.33;1.23;;;22.30;39.60;;;;;;4999288;28;20468;-58
2022/09/29 12:49:11;;;;;;;1.53;1.43;;;22.20;39.50;;;;;;4986806;28;20857;-58
2022/09/29 12:51:48;;;;;;;1.40;1.30;;;22.30;39.60;;;;;;5003446;28;20822;-58
2022/09/29 12:54:27;;;;;;;1.50;1.40;;;22.20;39.60;;;;;;4997243;28;21045;-60
2022/09/29 12:57:09;;;;;;;1.67;1.57;;;22.20;39.60;;;;;;5000626;28;20453;-59
2022/09/29 12:59:54;;;;;;;1.40;1.30;;;22.20;39.60;;;;;;4999186;28;20453;-59
2022/09/29 13:02:54;;;;;;;1.50;1.40;;;22.30;39.70;;;;;;4997936;28;20471;-59
2022/09/29 13:05:43;;;;;;;1.40;1.30;;;22.20;39.60;;;;;;4994343;28;20461;-59
2022/09/29 13:08:33;;;;;;;1.50;1.40;;;22.20;39.60;;;;;;4997783;28;20468;-64
2022/09/29 13:11:07;;;;;;;1.50;1.40;;;22.20;39.70;;;;;;4997771;28;20854;-59
2022/09/29 13:13:48;;;;;;;1.43;1.33;;;22.20;39.60;;;;;;5005466;28;21021;-58
2022/09/29 13:16:43;;;;;;;1.50;1.40;;;22.20;39.70;;;;;;4996904;28;20453;-62